Time,TemperatureF,DewpointF,PressureIn,WindDirection,WindDirectionDegrees,WindSpeedMPH,WindSpeedGustMPH,Humidity,HourlyPrecipIn,Conditions,Clouds,dailyrainin,SoftwareType,DateUTC
2013-01-14 00:02:00,4.1,-8.5,30.12,WSW,241,3.5,3.5,55,0.00,CLR,,0.00,WeatherDisplay:10.37,2013-01-14 06:02:00,
2013-01-14 00:08:00,4.1,-8.5,30.12,WSW,248,3.5,3.5,55,0.00,CLR,,0.00,WeatherDisplay:10.37,2013-01-14 06:08:00,
2013-01-14 00:13:00,4.1,-8.5,30.12,SW,229,3.6,3.6,55,0.00,CLR,,0.00,WeatherDisplay:10.37,2013-01-14 06:13:00,
2013-01-14 00:18:00,4.1,-8.5,30.12,West,279,3.5,3.5,55,0.00,CLR,,0.00,WeatherDisplay:10.37,2013-01-14 06:18:00,
2013-01-14 00:24:00,4.1,-8.5,30.12,WNW,294,4.0,4.0,55,0.00,CLR,,0.00,WeatherDisplay:10.37,2013-01-14 06:24:00,
2013-01-14 00:29:00,4.1,-8.5,30.12,WSW,249,3.5,3.5,55,0.00,CLR,,0.00,WeatherDisplay:10.37,2013-01-14 06:29:00,
2013-01-14 00:34:00,4.1,-8.5,30.12,WNW,298,4.0,4.0,55,0.00,CLR,,0.00,WeatherDisplay:10.37,2013-01-14 06:34:00,
2013-01-14 00:40:00,4.1,-8.5,30.12,West,261,3.5,3.5,55,0.00,CLR,,0.00,WeatherDisplay:10.37,2013-01-14 06:40:00,
2013-01-14 00:45:00,4.1,-8.5,30.12,SW,226,3.5,3.5,55,0.00,CLR,,0.00,WeatherDisplay:10.37,2013-01-14 06:45:00,
2013-01-14 00:50:00,4.1,-8.5,30.12,SW,229,3.5,3.5,55,0.00,CLR,,0.00,WeatherDisplay:10.37,2013-01-14 06:50:00,
2013-01-14 00:55:00,4.1,-8.5,30.12,WSW,249,3.5,0.0,55,0.00,CLR,,0.00,WeatherDisplay:10.37,2013-01-14 06:55:00,
2013-01-14 01:01:00,3.9,-8.7,30.12,SW,234,2.3,2.3,55,0.00,CLR,,0.00,WeatherDisplay:10.37,2013-01-14 07:01:00,
2013-01-14 01:06:00,3.9,-8.7,30.12,SW,236,4.6,4.6,55,0.00,CLR,,0.00,WeatherDisplay:10.37,2013-01-14 07:06:00,
2013-01-14 01:11:00,3.9,-8.7,30.12,WSW,249,4.6,4.6,55,0.00,CLR,,0.00,WeatherDisplay:10.37,2013-01-14 07:11:00,
2013-01-14 01:16:00,3.7,-8.9,30.12,WSW,249,4.5,4.5,55,0.00,CLR,,0.00,WeatherDisplay:10.37,2013-01-14 07:16:00,
2013-01-14 01:22:00,3.7,-8.9,30.12,WSW,247,3.5,3.5,55,0.00,CLR,,0.00,WeatherDisplay:10.37,2013-01-14 07:22:00,
2013-01-14 01:27:00,3.7,-8.9,30.12,SW,235,5.8,5.8,55,0.00,CLR,,0.00,WeatherDisplay:10.37,2013-01-14 07:27:00,
2013-01-14 01:32:00,3.7,-8.9,30.15,West,275,3.5,3.5,55,0.00,CLR,,0.00,WeatherDisplay:10.37,2013-01-14 07:32:00,
2013-01-14 01:37:00,3.9,-8.7,30.15,West,268,3.5,3.5,55,0.00,CLR,,0.00,WeatherDisplay:10.37,2013-01-14 07:37:00,
2013-01-14 01:42:00,3.7,-8.9,30.15,WSW,247,3.5,3.6,55,0.00,CLR,,0.00,WeatherDisplay:10.37,2013-01-14 07:42:00,
2013-01-14 01:47:00,3.7,-8.9,30.15,WSW,244,4.6,4.6,55,0.00,CLR,,0.00,WeatherDisplay:10.37,2013-01-14 07:47:00,
2013-01-14 01:53:00,3.7,-8.9,30.15,West,263,5.8,5.8,55,0.00,CLR,,0.00,WeatherDisplay:10.37,2013-01-14 07:53:00,
2013-01-14 01:58:00,3.7,-8.9,30.15,West,263,5.8,5.8,55,0.00,CLR,,0.00,WeatherDisplay:10.37,2013-01-14 07:58:00,
2013-01-14 02:03:00,3.7,-8.9,30.15,WSW,258,3.5,3.5,55,0.00,CLR,,0.00,WeatherDisplay:10.37,2013-01-14 08:03:00,
2013-01-14 02:08:00,3.7,-8.9,30.15,WSW,243,3.5,0.0,55,0.00,CLR,,0.00,WeatherDisplay:10.37,2013-01-14 08:08:00,
2013-01-14 02:13:00,3.7,-8.9,30.15,SW,227,3.5,3.5,55,0.00,CLR,,0.00,WeatherDisplay:10.37,2013-01-14 08:13:00,
2013-01-14 02:18:00,3.6,-9.0,30.15,WSW,255,0.0,0.0,55,0.00,CLR,,0.00,WeatherDisplay:10.37,2013-01-14 08:18:00,
2013-01-14 02:23:00,3.6,-9.0,30.15,WSW,248,0.0,0.0,55,0.00,CLR,,0.00,WeatherDisplay:10.37,2013-01-14 08:23:00,
2013-01-14 02:28:00,3.4,-9.2,30.15,SW,230,3.5,3.5,55,0.00,CLR,,0.00,WeatherDisplay:10.37,2013-01-14 08:28:00,
2013-01-14 02:33:00,3.2,-9.4,30.15,West,259,0.0,0.0,55,0.00,CLR,,0.00,WeatherDisplay:10.37,2013-01-14 08:33:00,
2013-01-14 02:39:00,3.2,-9.4,30.15,West,259,2.3,0.0,55,0.00,CLR,,0.00,WeatherDisplay:10.37,2013-01-14 08:39:00,
2013-01-14 02:44:00,3.2,-9.4,30.15,SW,218,4.9,4.9,55,0.00,CLR,,0.00,WeatherDisplay:10.37,2013-01-14 08:44:00,
2013-01-14 02:49:00,3.2,-9.4,30.15,SSW,200,3.5,3.5,55,0.00,CLR,,0.00,WeatherDisplay:10.37,2013-01-14 08:49:00,
2013-01-14 02:54:00,3.2,-9.4,30.15,SW,226,4.6,4.6,55,0.00,CLR,,0.00,WeatherDisplay:10.37,2013-01-14 08:54:00,
2013-01-14 02:59:00,3.0,-9.5,30.15,SSW,204,3.5,3.5,55,0.00,CLR,,0.00,WeatherDisplay:10.37,2013-01-14 08:59:00,
2013-01-14 03:05:00,2.8,-9.7,30.17,SW,219,3.5,3.5,55,0.00,CLR,,0.00,WeatherDisplay:10.37,2013-01-14 09:05:00,
2013-01-14 03:10:00,2.8,-9.7,30.17,WSW,243,2.3,0.0,55,0.00,CLR,,0.00,WeatherDisplay:10.37,2013-01-14 09:10:00,
2013-01-14 03:15:00,2.8,-9.7,30.17,WSW,247,3.6,0.0,55,0.00,CLR,,0.00,WeatherDisplay:10.37,2013-01-14 09:15:00,
2013-01-14 03:20:00,2.8,-9.7,30.15,WSW,240,5.8,5.8,55,0.00,CLR,,0.00,WeatherDisplay:10.37,2013-01-14 09:20:00,
2013-01-14 03:26:00,2.8,-9.7,30.15,SW,228,3.6,3.6,55,0.00,CLR,,0.00,WeatherDisplay:10.37,2013-01-14 09:26:00,
2013-01-14 03:31:00,2.8,-9.7,30.15,WSW,253,3.5,3.5,55,0.00,CLR,,0.00,WeatherDisplay:10.37,2013-01-14 09:31:00,
2013-01-14 03:36:00,2.8,-9.7,30.15,WSW,254,0.0,0.0,55,0.00,CLR,,0.00,WeatherDisplay:10.37,2013-01-14 09:36:00,
2013-01-14 03:41:00,2.7,-9.9,30.15,SW,236,2.7,0.0,55,0.00,CLR,,0.00,WeatherDisplay:10.37,2013-01-14 09:41:00,
2013-01-14 03:46:00,2.7,-9.9,30.15,SW,229,0.0,0.0,55,0.00,CLR,,0.00,WeatherDisplay:10.37,2013-01-14 09:46:00,
2013-01-14 03:52:00,2.7,-9.9,30.15,SW,223,2.7,3.1,55,0.00,CLR,,0.00,WeatherDisplay:10.37,2013-01-14 09:52:00,
2013-01-14 03:57:00,2.5,-10.0,30.15,SW,214,2.3,2.3,55,0.00,CLR,,0.00,WeatherDisplay:10.37,2013-01-14 09:57:00,
2013-01-14 04:02:00,2.5,-10.0,30.15,WSW,246,3.5,3.5,55,0.00,CLR,,0.00,WeatherDisplay:10.37,2013-01-14 10:02:00,
2013-01-14 04:08:00,2.5,-10.0,30.15,West,260,3.5,3.6,55,0.00,CLR,,0.00,WeatherDisplay:10.37,2013-01-14 10:08:00,
2013-01-14 04:13:00,2.7,-9.9,30.15,SW,236,4.6,4.6,55,0.00,CLR,,0.00,WeatherDisplay:10.37,2013-01-14 10:13:00,
2013-01-14 04:18:00,2.8,-9.7,30.15,SW,224,3.5,3.5,55,0.00,CLR,,0.00,WeatherDisplay:10.37,2013-01-14 10:18:00,
2013-01-14 04:23:00,2.8,-9.7,30.15,SSW,210,3.5,3.5,55,0.00,CLR,,0.00,WeatherDisplay:10.37,2013-01-14 10:23:00,
2013-01-14 04:28:00,2.7,-9.9,30.15,SW,232,0.0,0.0,55,0.00,CLR,,0.00,WeatherDisplay:10.37,2013-01-14 10:28:00,
2013-01-14 04:34:00,2.5,-10.0,30.17,SW,232,0.0,0.0,55,0.00,CLR,,0.00,WeatherDisplay:10.37,2013-01-14 10:34:00,
2013-01-14 04:39:00,2.5,-10.0,30.17,SW,232,0.0,0.0,55,0.00,CLR,,0.00,WeatherDisplay:10.37,2013-01-14 10:39:00,
2013-01-14 04:44:00,2.1,-10.4,30.17,SW,232,0.0,0.0,55,0.00,CLR,,0.00,WeatherDisplay:10.37,2013-01-14 10:44:00,
2013-01-14 04:49:00,1.8,-10.7,30.17,SW,232,0.0,0.0,55,0.00,CLR,,0.00,WeatherDisplay:10.37,2013-01-14 10:49:00,
2013-01-14 04:54:00,1.6,-10.9,30.17,SW,232,0.0,0.0,55,0.00,CLR,,0.00,WeatherDisplay:10.37,2013-01-14 10:54:00,
2013-01-14 05:00:00,1.2,-11.2,30.17,SW,232,0.0,0.0,55,0.00,CLR,,0.00,WeatherDisplay:10.37,2013-01-14 11:00:00,
2013-01-14 05:05:00,1.0,-11.4,30.17,SW,232,0.0,0.0,55,0.00,CLR,,0.00,WeatherDisplay:10.37,2013-01-14 11:05:00,
2013-01-14 05:10:00,0.9,-11.6,30.17,SW,232,0.0,0.0,55,0.00,CLR,,0.00,WeatherDisplay:10.37,2013-01-14 11:10:00,
2013-01-14 05:15:00,0.7,-11.7,30.17,SW,232,0.0,0.0,55,0.00,CLR,,0.00,WeatherDisplay:10.37,2013-01-14 11:15:00,
2013-01-14 05:21:00,0.5,-11.9,30.17,SW,232,0.0,0.0,55,0.00,CLR,,0.00,WeatherDisplay:10.37,2013-01-14 11:21:00,
2013-01-14 05:26:00,0.3,-12.1,30.17,SW,232,0.0,0.0,55,0.00,CLR,,0.00,WeatherDisplay:10.37,2013-01-14 11:26:00,
2013-01-14 05:31:00,0.3,-12.1,30.17,SW,232,0.0,0.0,55,0.00,CLR,,0.00,WeatherDisplay:10.37,2013-01-14 11:31:00,
2013-01-14 05:36:00,0.1,-12.2,30.20,SW,232,0.0,0.0,55,0.00,CLR,,0.00,WeatherDisplay:10.37,2013-01-14 11:36:00,
2013-01-14 05:41:00,0.0,-12.4,30.20,SW,232,0.0,0.0,55,0.00,CLR,,0.00,WeatherDisplay:10.37,2013-01-14 11:41:00,
2013-01-14 05:46:00,0.0,-12.4,30.20,SW,232,0.0,0.0,55,0.00,CLR,,0.00,WeatherDisplay:10.37,2013-01-14 11:46:00,
2013-01-14 05:51:00,-0.2,-12.6,30.17,SW,232,0.0,0.0,55,0.00,CLR,,0.00,WeatherDisplay:10.37,2013-01-14 11:51:00,
2013-01-14 05:56:00,-0.2,-12.6,30.17,SW,232,0.0,0.0,55,0.00,CLR,,0.00,WeatherDisplay:10.37,2013-01-14 11:56:00,
2013-01-14 06:02:00,-0.2,-12.6,30.17,SW,232,0.0,0.0,55,0.00,CLR,,0.00,WeatherDisplay:10.37,2013-01-14 12:02:00,
2013-01-14 06:07:00,-0.2,-12.6,30.20,SW,232,0.0,0.0,55,0.00,CLR,,0.00,WeatherDisplay:10.37,2013-01-14 12:07:00,
2013-01-14 06:12:00,-0.4,-12.7,30.20,SW,232,0.0,0.0,55,0.00,CLR,,0.00,WeatherDisplay:10.37,2013-01-14 12:12:00,
2013-01-14 06:17:00,-0.4,-12.7,30.20,SW,215,3.5,3.5,55,0.00,CLR,,0.00,WeatherDisplay:10.37,2013-01-14 12:17:00,
2013-01-14 06:22:00,0.0,-12.4,30.20,SW,214,3.5,3.5,55,0.00,CLR,,0.00,WeatherDisplay:10.37,2013-01-14 12:22:00,
2013-01-14 06:28:00,0.3,-12.1,30.20,SW,222,3.5,3.5,55,0.00,CLR,,0.00,WeatherDisplay:10.37,2013-01-14 12:28:00,
2013-01-14 06:33:00,0.5,-11.9,30.20,SW,222,2.3,2.7,55,0.00,CLR,,0.00,WeatherDisplay:10.37,2013-01-14 12:33:00,
2013-01-14 06:38:00,0.7,-11.7,30.20,SW,222,2.3,2.7,55,0.00,CLR,,0.00,WeatherDisplay:10.37,2013-01-14 12:38:00,
2013-01-14 06:43:00,0.9,-11.6,30.20,SW,221,3.5,3.5,55,0.00,CLR,,0.00,WeatherDisplay:10.37,2013-01-14 12:43:00,
2013-01-14 06:49:00,1.2,-11.2,30.20,SSW,211,3.5,3.5,55,0.00,CLR,,0.00,WeatherDisplay:10.37,2013-01-14 12:49:00,
2013-01-14 06:54:00,1.2,-11.2,30.20,SSW,212,3.5,3.5,55,0.00,CLR,,0.00,WeatherDisplay:10.37,2013-01-14 12:54:00,
2013-01-14 06:59:00,1.4,-11.1,30.20,SSW,212,2.3,0.0,55,0.00,CLR,,0.00,WeatherDisplay:10.37,2013-01-14 12:59:00,
2013-01-14 07:04:00,1.6,-10.9,30.20,SSW,212,0.0,0.0,55,0.00,CLR,,0.00,WeatherDisplay:10.37,2013-01-14 13:04:00,
2013-01-14 07:09:00,1.4,-11.1,30.20,SSW,212,0.0,0.0,55,0.00,CLR,,0.00,WeatherDisplay:10.37,2013-01-14 13:09:00,
2013-01-14 07:14:00,1.4,-11.1,30.20,SSW,212,0.0,0.0,55,0.00,CLR,,0.00,WeatherDisplay:10.37,2013-01-14 13:14:00,
2013-01-14 07:19:00,1.2,-11.2,30.20,SSW,212,0.0,0.0,55,0.00,CLR,,0.00,WeatherDisplay:10.37,2013-01-14 13:19:00,
2013-01-14 07:25:00,1.2,-11.2,30.20,SSW,212,0.0,0.0,55,0.00,CLR,,0.00,WeatherDisplay:10.37,2013-01-14 13:25:00,
2013-01-14 07:30:00,0.9,-11.6,30.20,SSW,212,0.0,0.0,55,0.00,CLR,,0.00,WeatherDisplay:10.37,2013-01-14 13:30:00,
2013-01-14 07:35:00,0.9,-11.6,30.20,SSW,212,0.0,0.0,55,0.00,CLR,,0.00,WeatherDisplay:10.37,2013-01-14 13:35:00,
2013-01-14 07:40:00,0.7,-11.7,30.20,SSW,213,0.0,0.0,55,0.00,CLR,,0.00,WeatherDisplay:10.37,2013-01-14 13:40:00,
2013-01-14 07:45:00,0.7,-11.7,30.20,SSW,212,0.0,0.0,55,0.00,CLR,,0.00,WeatherDisplay:10.37,2013-01-14 13:45:00,
2013-01-14 07:50:00,0.7,-11.7,30.23,SSW,212,0.0,0.0,55,0.00,CLR,,0.00,WeatherDisplay:10.37,2013-01-14 13:50:00,
2013-01-14 07:56:00,0.7,-11.7,30.23,SSW,212,0.0,0.0,55,0.00,CLR,,0.00,WeatherDisplay:10.37,2013-01-14 13:56:00,
2013-01-14 08:01:00,0.9,-11.6,30.23,SSW,212,0.0,0.0,55,0.00,CLR,,0.00,WeatherDisplay:10.37,2013-01-14 14:01:00,
2013-01-14 08:06:00,1.0,-11.4,30.23,SSW,212,0.0,0.0,55,0.00,CLR,,0.00,WeatherDisplay:10.37,2013-01-14 14:06:00,
2013-01-14 08:11:00,1.2,-11.2,30.23,SSW,212,0.0,0.0,55,0.00,CLR,,0.00,WeatherDisplay:10.37,2013-01-14 14:11:00,
2013-01-14 08:16:00,1.2,-11.2,30.23,SSW,212,0.0,0.0,55,0.00,CLR,,0.00,WeatherDisplay:10.37,2013-01-14 14:16:00,
2013-01-14 08:22:00,1.6,-10.9,30.23,SSW,212,0.0,0.0,55,0.00,CLR,,0.00,WeatherDisplay:10.37,2013-01-14 14:22:00,
2013-01-14 08:27:00,1.8,-10.7,30.23,SSW,212,0.0,0.0,55,0.00,CLR,,0.00,WeatherDisplay:10.37,2013-01-14 14:27:00,
2013-01-14 08:32:00,2.5,-10.0,30.23,SSW,212,0.0,0.0,55,0.00,CLR,,0.00,WeatherDisplay:10.37,2013-01-14 14:32:00,
2013-01-14 08:37:00,2.8,-9.7,30.23,SSW,212,0.0,0.0,55,0.00,CLR,,0.00,WeatherDisplay:10.37,2013-01-14 14:37:00,
2013-01-14 08:43:00,3.7,-8.9,30.23,SW,221,3.5,3.6,55,0.00,CLR,,0.00,WeatherDisplay:10.37,2013-01-14 14:43:00,
2013-01-14 08:48:00,4.5,-8.2,30.23,SSW,200,5.8,5.8,55,0.00,CLR,,0.00,WeatherDisplay:10.37,2013-01-14 14:48:00,
2013-01-14 08:53:00,5.2,-7.5,30.23,SW,222,4.6,4.6,55,0.00,CLR,,0.00,WeatherDisplay:10.37,2013-01-14 14:53:00,
2013-01-14 08:58:00,5.5,-7.2,30.23,SW,219,4.6,4.6,55,0.00,CLR,,0.00,WeatherDisplay:10.37,2013-01-14 14:58:00,
2013-01-14 09:04:00,6.1,-6.7,30.23,SSW,212,5.8,5.8,55,0.00,CLR,,0.00,WeatherDisplay:10.37,2013-01-14 15:04:00,
2013-01-14 09:09:00,6.4,-6.3,30.23,SW,232,4.6,4.6,55,0.00,CLR,,0.00,WeatherDisplay:10.37,2013-01-14 15:09:00,
2013-01-14 09:14:00,6.8,-6.0,30.23,SSW,212,8.1,8.1,55,0.00,CLR,,0.00,WeatherDisplay:10.37,2013-01-14 15:14:00,
2013-01-14 09:19:00,7.0,-5.8,30.23,SW,229,5.8,5.8,55,0.00,CLR,,0.00,WeatherDisplay:10.37,2013-01-14 15:19:00,
2013-01-14 09:24:00,7.3,-5.5,30.23,WSW,248,5.8,5.8,55,0.00,CLR,,0.00,WeatherDisplay:10.37,2013-01-14 15:24:00,
2013-01-14 09:29:00,7.9,-5.0,30.23,SSW,205,5.8,5.8,55,0.00,CLR,,0.00,WeatherDisplay:10.37,2013-01-14 15:29:00,
2013-01-14 09:35:00,8.2,-4.6,30.23,SSW,211,5.8,5.8,55,0.00,CLR,,0.00,WeatherDisplay:10.37,2013-01-14 15:35:00,
2013-01-14 09:40:00,8.4,-4.5,30.23,West,264,3.5,3.5,55,0.00,CLR,,0.00,WeatherDisplay:10.37,2013-01-14 15:40:00,
2013-01-14 09:45:00,8.8,-4.1,30.23,SW,230,5.8,5.8,55,0.00,CLR,,0.00,WeatherDisplay:10.37,2013-01-14 15:45:00,
2013-01-14 09:50:00,9.0,-4.0,30.23,SSW,206,5.8,5.8,55,0.00,CLR,,0.00,WeatherDisplay:10.37,2013-01-14 15:50:00,
2013-01-14 09:56:00,9.1,-3.8,30.23,SW,215,5.8,5.8,55,0.00,CLR,,0.00,WeatherDisplay:10.37,2013-01-14 15:56:00,
2013-01-14 10:01:00,9.3,-3.6,30.23,SW,230,5.8,5.8,55,0.00,CLR,,0.00,WeatherDisplay:10.37,2013-01-14 16:01:00,
2013-01-14 10:06:00,9.3,-3.6,30.23,SSW,213,5.8,5.8,55,0.00,CLR,,0.00,WeatherDisplay:10.37,2013-01-14 16:06:00,
2013-01-14 10:11:00,9.5,-3.4,30.23,SW,223,5.8,5.8,55,0.00,CLR,,0.00,WeatherDisplay:10.37,2013-01-14 16:11:00,
2013-01-14 10:17:00,9.9,-3.1,30.23,SW,236,3.5,3.5,55,0.00,CLR,,0.00,WeatherDisplay:10.37,2013-01-14 16:17:00,
2013-01-14 10:22:00,10.0,-2.9,30.23,SW,226,4.6,4.6,55,0.00,CLR,,0.00,WeatherDisplay:10.37,2013-01-14 16:22:00,
2013-01-14 10:27:00,10.4,-2.6,30.23,SW,217,5.8,5.8,55,0.00,CLR,,0.00,WeatherDisplay:10.37,2013-01-14 16:27:00,
2013-01-14 10:32:00,10.8,-2.3,30.23,SSW,205,5.8,6.3,55,0.00,CLR,,0.00,WeatherDisplay:10.37,2013-01-14 16:32:00,
2013-01-14 10:37:00,10.8,-2.3,30.23,SW,215,4.6,4.6,55,0.00,CLR,,0.00,WeatherDisplay:10.37,2013-01-14 16:37:00,
2013-01-14 10:43:00,11.1,-1.9,30.23,West,260,5.8,5.8,55,0.00,CLR,,0.00,WeatherDisplay:10.37,2013-01-14 16:43:00,
2013-01-14 10:48:00,11.3,-1.8,30.23,SW,233,5.8,5.8,55,0.00,CLR,,0.00,WeatherDisplay:10.37,2013-01-14 16:48:00,
2013-01-14 10:53:00,11.7,-1.4,30.23,SW,216,5.8,5.8,55,0.00,CLR,,0.00,WeatherDisplay:10.37,2013-01-14 16:53:00,
2013-01-14 10:58:00,11.8,-1.2,30.23,SW,227,8.1,8.1,55,0.00,CLR,,0.00,WeatherDisplay:10.37,2013-01-14 16:58:00,
2013-01-14 11:03:00,12.0,-1.1,30.23,West,268,3.5,3.5,55,0.00,CLR,,0.00,WeatherDisplay:10.37,2013-01-14 17:03:00,
2013-01-14 11:08:00,12.6,-0.6,30.23,WSW,257,4.0,4.0,55,0.00,CLR,,0.00,WeatherDisplay:10.37,2013-01-14 17:08:00,
2013-01-14 11:14:00,12.9,-0.2,30.23,SW,223,6.3,6.3,55,0.00,CLR,,0.00,WeatherDisplay:10.37,2013-01-14 17:14:00,
2013-01-14 11:19:00,13.1,-0.1,30.23,West,265,8.1,8.1,55,0.00,CLR,,0.00,WeatherDisplay:10.37,2013-01-14 17:19:00,
2013-01-14 11:24:00,13.1,-0.1,30.23,NW,312,5.8,5.8,55,0.00,CLR,,0.00,WeatherDisplay:10.37,2013-01-14 17:24:00,
2013-01-14 11:29:00,13.3,0.1,30.23,WSW,239,10.4,10.4,55,0.00,CLR,,0.00,WeatherDisplay:10.37,2013-01-14 17:29:00,
2013-01-14 11:35:00,12.9,-0.2,30.23,SSW,195,5.8,5.8,55,0.00,CLR,,0.00,WeatherDisplay:10.37,2013-01-14 17:35:00,
2013-01-14 11:40:00,12.9,-0.2,30.23,WSW,257,8.1,8.1,55,0.00,CLR,,0.00,WeatherDisplay:10.37,2013-01-14 17:40:00,
2013-01-14 11:45:00,13.3,0.1,30.23,West,275,5.8,5.8,55,0.00,CLR,,0.00,WeatherDisplay:10.37,2013-01-14 17:45:00,
2013-01-14 11:50:00,13.3,0.1,30.23,WSW,252,5.8,5.8,55,0.00,CLR,,0.00,WeatherDisplay:10.37,2013-01-14 17:50:00,
2013-01-14 11:55:00,13.3,0.1,30.23,SW,224,5.8,5.8,55,0.00,CLR,,0.00,WeatherDisplay:10.37,2013-01-14 17:55:00,
2013-01-14 12:00:00,13.3,0.1,30.23,WNW,288,8.1,8.1,55,0.00,CLR,,0.00,WeatherDisplay:10.37,2013-01-14 18:00:00,
2013-01-14 12:05:00,13.1,-0.1,30.23,West,279,5.8,5.8,55,0.00,CLR,,0.00,WeatherDisplay:10.37,2013-01-14 18:05:00,
2013-01-14 12:10:00,13.5,0.3,30.23,SW,234,5.8,5.8,55,0.00,CLR,,0.00,WeatherDisplay:10.37,2013-01-14 18:10:00,
2013-01-14 12:16:00,13.6,0.4,30.23,WSW,246,8.1,8.1,55,0.00,CLR,,0.00,WeatherDisplay:10.37,2013-01-14 18:16:00,
2013-01-14 12:21:00,13.8,0.6,30.23,SW,235,5.8,5.8,55,0.00,CLR,,0.00,WeatherDisplay:10.37,2013-01-14 18:21:00,
2013-01-14 12:26:00,14.0,2.3,30.23,NW,312,5.8,5.8,59,0.00,CLR,,0.00,WeatherDisplay:10.37,2013-01-14 18:26:00,
2013-01-14 12:31:00,14.0,2.3,30.23,West,272,5.8,5.8,59,0.00,CLR,,0.00,WeatherDisplay:10.37,2013-01-14 18:31:00,
2013-01-14 12:36:00,14.2,2.5,30.23,SW,234,6.9,6.9,59,0.00,CLR,,0.00,WeatherDisplay:10.37,2013-01-14 18:36:00,
2013-01-14 12:42:00,14.2,2.5,30.23,West,268,8.1,8.1,59,0.00,CLR,,0.00,WeatherDisplay:10.37,2013-01-14 18:42:00,
2013-01-14 12:47:00,14.2,2.5,30.23,West,281,4.6,4.9,59,0.00,CLR,,0.00,WeatherDisplay:10.37,2013-01-14 18:47:00,
2013-01-14 12:52:00,14.2,2.5,30.20,NW,305,5.8,5.8,59,0.00,CLR,,0.00,WeatherDisplay:10.37,2013-01-14 18:52:00,
2013-01-14 12:57:00,14.2,2.1,30.20,WSW,251,4.6,4.6,58,0.00,CLR,,0.00,WeatherDisplay:10.37,2013-01-14 18:57:00,
2013-01-14 13:03:00,14.2,2.1,30.23,SW,217,8.0,8.0,58,0.00,CLR,,0.00,WeatherDisplay:10.37,2013-01-14 19:03:00,
2013-01-14 13:08:00,14.0,1.9,30.23,SW,231,4.6,4.6,58,0.00,CLR,,0.00,WeatherDisplay:10.37,2013-01-14 19:08:00,
2013-01-14 13:13:00,14.2,1.7,30.23,WSW,237,5.8,5.8,57,0.00,CLR,,0.00,WeatherDisplay:10.37,2013-01-14 19:13:00,
2013-01-14 13:18:00,14.4,1.9,30.23,SSW,212,5.8,7.2,57,0.00,CLR,,0.00,WeatherDisplay:10.37,2013-01-14 19:18:00,
2013-01-14 13:23:00,14.5,2.4,30.23,SW,232,5.8,5.8,58,0.00,CLR,,0.00,WeatherDisplay:10.37,2013-01-14 19:23:00,
2013-01-14 13:29:00,14.9,2.8,30.23,WSW,258,5.8,5.8,58,0.00,CLR,,0.00,WeatherDisplay:10.37,2013-01-14 19:29:00,
2013-01-14 13:34:00,14.9,2.4,30.23,West,268,8.1,8.1,57,0.00,CLR,,0.00,WeatherDisplay:10.37,2013-01-14 19:34:00,
2013-01-14 13:39:00,14.9,2.4,30.23,WSW,248,5.8,5.8,57,0.00,CLR,,0.00,WeatherDisplay:10.37,2013-01-14 19:39:00,
2013-01-14 13:44:00,15.1,2.9,30.23,West,276,3.6,3.6,58,0.00,CLR,,0.00,WeatherDisplay:10.37,2013-01-14 19:44:00,
2013-01-14 13:50:00,15.1,2.6,30.23,WSW,240,5.8,5.8,57,0.00,CLR,,0.00,WeatherDisplay:10.37,2013-01-14 19:50:00,
2013-01-14 13:55:00,15.1,2.6,30.23,West,276,5.8,5.8,57,0.00,CLR,,0.00,WeatherDisplay:10.37,2013-01-14 19:55:00,
2013-01-14 14:00:00,14.9,2.4,30.23,WSW,240,5.8,5.8,57,0.00,CLR,,0.00,WeatherDisplay:10.37,2013-01-14 20:00:00,
2013-01-14 14:05:00,14.9,2.4,30.23,West,277,5.8,5.8,57,0.00,CLR,,0.00,WeatherDisplay:10.37,2013-01-14 20:05:00,
2013-01-14 14:11:00,14.9,2.4,30.23,West,259,5.8,5.8,57,0.00,CLR,,0.00,WeatherDisplay:10.37,2013-01-14 20:11:00,
2013-01-14 14:16:00,14.9,2.4,30.23,West,270,5.8,5.8,57,0.00,CLR,,0.00,WeatherDisplay:10.37,2013-01-14 20:16:00,
2013-01-14 14:21:00,15.1,2.6,30.23,WSW,251,5.8,5.8,57,0.00,CLR,,0.00,WeatherDisplay:10.37,2013-01-14 20:21:00,
2013-01-14 14:26:00,15.3,2.7,30.23,West,270,3.6,3.6,57,0.00,CLR,,0.00,WeatherDisplay:10.37,2013-01-14 20:26:00,
2013-01-14 14:31:00,15.3,2.7,30.23,WSW,238,9.2,9.2,57,0.00,CLR,,0.00,WeatherDisplay:10.37,2013-01-14 20:31:00,
2013-01-14 14:36:00,15.3,2.7,30.26,West,262,6.9,6.9,57,0.00,CLR,,0.00,WeatherDisplay:10.37,2013-01-14 20:36:00,
2013-01-14 14:42:00,15.3,2.7,30.26,West,259,8.3,8.3,57,0.00,CLR,,0.00,WeatherDisplay:10.37,2013-01-14 20:42:00,
2013-01-14 14:47:00,15.3,2.7,30.26,WNW,284,5.8,5.8,57,0.00,CLR,,0.00,WeatherDisplay:10.37,2013-01-14 20:47:00,
2013-01-14 14:52:00,15.3,2.7,30.26,WSW,258,9.2,9.2,57,0.00,CLR,,0.00,WeatherDisplay:10.37,2013-01-14 20:52:00,
2013-01-14 14:57:00,15.3,2.3,30.26,West,271,8.1,8.1,56,0.00,CLR,,0.00,WeatherDisplay:10.37,2013-01-14 20:57:00,
2013-01-14 15:03:00,15.3,2.3,30.23,SW,229,6.9,6.9,56,0.00,CLR,,0.00,WeatherDisplay:10.37,2013-01-14 21:03:00,
2013-01-14 15:08:00,15.3,2.3,30.23,WSW,244,6.9,6.9,56,0.00,CLR,,0.00,WeatherDisplay:10.37,2013-01-14 21:08:00,
2013-01-14 15:13:00,15.3,2.3,30.23,West,272,5.8,5.8,56,0.00,CLR,,0.00,WeatherDisplay:10.37,2013-01-14 21:13:00,
2013-01-14 15:18:00,15.3,2.3,30.26,WSW,246,5.8,5.8,56,0.00,CLR,,0.00,WeatherDisplay:10.37,2013-01-14 21:18:00,
2013-01-14 15:23:00,15.3,2.3,30.26,WSW,257,5.4,5.4,56,0.00,CLR,,0.00,WeatherDisplay:10.37,2013-01-14 21:23:00,
2013-01-14 15:28:00,15.3,2.3,30.26,WSW,241,4.6,4.6,56,0.00,CLR,,0.00,WeatherDisplay:10.37,2013-01-14 21:28:00,
2013-01-14 15:33:00,15.1,2.2,30.26,West,276,3.5,3.5,56,0.00,CLR,,0.00,WeatherDisplay:10.37,2013-01-14 21:33:00,
2013-01-14 15:39:00,14.9,2.0,30.26,WSW,247,5.8,5.8,56,0.00,CLR,,0.00,WeatherDisplay:10.37,2013-01-14 21:39:00,
2013-01-14 15:44:00,14.9,2.0,30.26,West,269,5.8,5.8,56,0.00,CLR,,0.00,WeatherDisplay:10.37,2013-01-14 21:44:00,
2013-01-14 15:49:00,14.7,1.8,30.26,SW,230,3.5,3.5,56,0.00,CLR,,0.00,WeatherDisplay:10.37,2013-01-14 21:49:00,
2013-01-14 15:54:00,14.5,1.7,30.26,WNW,294,6.3,6.3,56,0.00,CLR,,0.00,WeatherDisplay:10.37,2013-01-14 21:54:00,
2013-01-14 15:59:00,14.4,1.5,30.26,WSW,256,5.4,5.4,56,0.00,CLR,,0.00,WeatherDisplay:10.37,2013-01-14 21:59:00,
2013-01-14 16:04:00,14.2,1.3,30.26,WSW,242,4.6,4.6,56,0.00,CLR,,0.00,WeatherDisplay:10.37,2013-01-14 22:04:00,
2013-01-14 16:10:00,14.2,1.3,30.26,West,279,3.5,4.0,56,0.00,CLR,,0.00,WeatherDisplay:10.37,2013-01-14 22:10:00,
2013-01-14 16:15:00,14.0,1.5,30.26,WSW,252,3.5,3.5,57,0.00,CLR,,0.00,WeatherDisplay:10.37,2013-01-14 22:15:00,
2013-01-14 16:20:00,13.8,1.4,30.26,SW,226,6.3,6.3,57,0.00,CLR,,0.00,WeatherDisplay:10.37,2013-01-14 22:20:00,
2013-01-14 16:25:00,13.8,1.4,30.26,WSW,246,5.8,5.8,57,0.00,CLR,,0.00,WeatherDisplay:10.37,2013-01-14 22:25:00,
2013-01-14 16:30:00,13.6,1.2,30.26,NW,321,3.5,4.0,57,0.00,CLR,,0.00,WeatherDisplay:10.37,2013-01-14 22:30:00,
2013-01-14 16:35:00,13.5,1.0,30.26,West,262,4.6,4.6,57,0.00,CLR,,0.00,WeatherDisplay:10.37,2013-01-14 22:35:00,
2013-01-14 16:41:00,13.5,1.0,30.26,West,261,5.8,5.8,57,0.00,CLR,,0.00,WeatherDisplay:10.37,2013-01-14 22:41:00,
2013-01-14 16:46:00,13.3,0.9,30.26,WSW,249,3.5,3.6,57,0.00,CLR,,0.00,WeatherDisplay:10.37,2013-01-14 22:46:00,
2013-01-14 16:51:00,12.9,0.5,30.26,WSW,254,5.8,5.8,57,0.00,CLR,,0.00,WeatherDisplay:10.37,2013-01-14 22:51:00,
2013-01-14 16:56:00,12.6,0.2,30.26,WSW,250,5.8,5.8,57,0.00,CLR,,0.00,WeatherDisplay:10.37,2013-01-14 22:56:00,
2013-01-14 17:01:00,12.2,-0.1,30.26,WSW,244,3.5,3.5,57,0.00,CLR,,0.00,WeatherDisplay:10.37,2013-01-14 23:01:00,
2013-01-14 17:07:00,11.8,-0.5,30.26,West,261,3.5,3.5,57,0.00,CLR,,0.00,WeatherDisplay:10.37,2013-01-14 23:07:00,
2013-01-14 17:12:00,11.7,-0.7,30.26,WSW,253,3.5,3.5,57,0.00,CLR,,0.00,WeatherDisplay:10.37,2013-01-14 23:12:00,
2013-01-14 17:17:00,11.3,-1.0,30.26,West,271,2.3,0.0,57,0.00,CLR,,0.00,WeatherDisplay:10.37,2013-01-14 23:17:00,
2013-01-14 17:22:00,10.9,-1.3,30.26,WSW,254,3.5,0.0,57,0.00,CLR,,0.00,WeatherDisplay:10.37,2013-01-14 23:22:00,
2013-01-14 17:27:00,10.8,-1.5,30.26,West,264,3.5,0.0,57,0.00,CLR,,0.00,WeatherDisplay:10.37,2013-01-14 23:27:00,
2013-01-14 17:32:00,10.6,-1.7,30.26,WSW,240,0.0,0.0,57,0.00,CLR,,0.00,WeatherDisplay:10.37,2013-01-14 23:32:00,
2013-01-14 17:37:00,10.2,-2.0,30.26,WSW,240,0.0,0.0,57,0.00,CLR,,0.00,WeatherDisplay:10.37,2013-01-14 23:37:00,
2013-01-14 17:43:00,10.0,-2.2,30.26,WSW,256,2.3,2.3,57,0.00,CLR,,0.00,WeatherDisplay:10.37,2013-01-14 23:43:00,
2013-01-14 17:48:00,9.9,-2.4,30.26,WSW,254,0.0,0.0,57,0.00,CLR,,0.00,WeatherDisplay:10.37,2013-01-14 23:48:00,
2013-01-14 17:53:00,9.7,-2.5,30.26,WSW,256,0.0,0.0,57,0.00,CLR,,0.00,WeatherDisplay:10.37,2013-01-14 23:53:00,
2013-01-14 17:58:00,9.5,-2.7,30.26,WSW,255,0.0,0.0,57,0.00,CLR,,0.00,WeatherDisplay:10.37,2013-01-14 23:58:00,
2013-01-14 18:03:00,9.5,-2.7,30.26,WSW,257,2.3,2.3,57,0.00,CLR,,0.00,WeatherDisplay:10.37,2013-01-15 00:03:00,
2013-01-14 18:09:00,9.3,-2.9,30.26,WSW,258,3.5,0.0,57,0.00,CLR,,0.00,WeatherDisplay:10.37,2013-01-15 00:09:00,
2013-01-14 18:14:00,9.1,-3.0,30.26,WSW,258,0.0,0.0,57,0.00,CLR,,0.00,WeatherDisplay:10.37,2013-01-15 00:14:00,
2013-01-14 18:19:00,9.0,-3.2,30.26,WSW,258,0.0,0.0,57,0.00,CLR,,0.00,WeatherDisplay:10.37,2013-01-15 00:19:00,
2013-01-14 18:24:00,8.8,-3.4,30.26,WSW,258,0.0,0.0,57,0.00,CLR,,0.00,WeatherDisplay:10.37,2013-01-15 00:24:00,
2013-01-14 18:30:00,8.4,-3.7,30.26,WSW,257,0.0,0.0,57,0.00,CLR,,0.00,WeatherDisplay:10.37,2013-01-15 00:30:00,
2013-01-14 18:35:00,8.1,-4.0,30.26,WSW,258,0.0,0.0,57,0.00,CLR,,0.00,WeatherDisplay:10.37,2013-01-15 00:35:00,
2013-01-14 18:40:00,7.9,-4.2,30.26,WSW,258,0.0,0.0,57,0.00,CLR,,0.00,WeatherDisplay:10.37,2013-01-15 00:40:00,
2013-01-14 18:45:00,7.5,-4.6,30.26,WSW,258,0.0,0.0,57,0.00,CLR,,0.00,WeatherDisplay:10.37,2013-01-15 00:45:00,
2013-01-14 18:50:00,7.3,-4.7,30.26,WSW,258,0.0,0.0,57,0.00,CLR,,0.00,WeatherDisplay:10.37,2013-01-15 00:50:00,
2013-01-14 18:55:00,7.0,-5.1,30.26,WSW,258,0.0,0.0,57,0.00,CLR,,0.00,WeatherDisplay:10.37,2013-01-15 00:55:00,
2013-01-14 19:01:00,6.8,-5.2,30.26,WSW,257,0.0,0.0,57,0.00,CLR,,0.00,WeatherDisplay:10.37,2013-01-15 01:01:00,
2013-01-14 19:06:00,6.3,-5.7,30.26,WSW,258,0.0,0.0,57,0.00,CLR,,0.00,WeatherDisplay:10.37,2013-01-15 01:06:00,
2013-01-14 19:11:00,6.1,-5.9,30.26,WSW,258,0.0,0.0,57,0.00,CLR,,0.00,WeatherDisplay:10.37,2013-01-15 01:11:00,
2013-01-14 19:16:00,5.9,-6.1,30.26,WSW,258,0.0,0.0,57,0.00,CLR,,0.00,WeatherDisplay:10.37,2013-01-15 01:16:00,
2013-01-14 19:22:00,5.4,-6.6,30.26,WSW,258,0.0,0.0,57,0.00,CLR,,0.00,WeatherDisplay:10.37,2013-01-15 01:22:00,
2013-01-14 19:27:00,5.0,-6.9,30.26,WSW,257,0.0,0.0,57,0.00,CLR,,0.00,WeatherDisplay:10.37,2013-01-15 01:27:00,
2013-01-14 19:32:00,4.6,-7.3,30.26,WSW,258,0.0,0.0,57,0.00,CLR,,0.00,WeatherDisplay:10.37,2013-01-15 01:32:00,
2013-01-14 19:38:00,4.5,-7.4,30.26,WSW,258,0.0,0.0,57,0.00,CLR,,0.00,WeatherDisplay:10.37,2013-01-15 01:38:00,
2013-01-14 19:43:00,4.1,-7.8,30.26,WSW,258,0.0,0.0,57,0.00,CLR,,0.00,WeatherDisplay:10.37,2013-01-15 01:43:00,
2013-01-14 19:48:00,3.9,-8.0,30.26,WSW,257,0.0,0.0,57,0.00,CLR,,0.00,WeatherDisplay:10.37,2013-01-15 01:48:00,
2013-01-14 19:53:00,3.7,-8.1,30.26,WSW,258,0.0,0.0,57,0.00,CLR,,0.00,WeatherDisplay:10.37,2013-01-15 01:53:00,
2013-01-14 19:58:00,3.6,-8.3,30.26,WSW,258,0.0,0.0,57,0.00,CLR,,0.00,WeatherDisplay:10.37,2013-01-15 01:58:00,
2013-01-14 20:04:00,3.4,-8.5,30.26,WSW,258,0.0,0.0,57,0.00,CLR,,0.00,WeatherDisplay:10.37,2013-01-15 02:04:00,
2013-01-14 20:09:00,3.2,-8.6,30.26,WSW,258,0.0,0.0,57,0.00,CLR,,0.00,WeatherDisplay:10.37,2013-01-15 02:09:00,
2013-01-14 20:14:00,3.2,-8.6,30.26,WSW,257,0.0,0.0,57,0.00,CLR,,0.00,WeatherDisplay:10.37,2013-01-15 02:14:00,
2013-01-14 20:19:00,3.0,-8.8,30.26,WSW,258,0.0,0.0,57,0.00,CLR,,0.00,WeatherDisplay:10.37,2013-01-15 02:19:00,
2013-01-14 20:24:00,2.8,-9.0,30.26,WSW,258,0.0,0.0,57,0.00,CLR,,0.00,WeatherDisplay:10.37,2013-01-15 02:24:00,
2013-01-14 20:29:00,3.0,-8.8,30.26,WSW,258,0.0,0.0,57,0.00,CLR,,0.00,WeatherDisplay:10.37,2013-01-15 02:29:00,
2013-01-14 20:34:00,3.2,-8.6,30.26,WSW,258,0.0,0.0,57,0.00,CLR,,0.00,WeatherDisplay:10.37,2013-01-15 02:34:00,
2013-01-14 20:39:00,3.0,-8.8,30.26,WSW,258,0.0,0.0,57,0.00,CLR,,0.00,WeatherDisplay:10.37,2013-01-15 02:39:00,
2013-01-14 20:45:00,2.8,-9.0,30.26,WSW,257,0.0,0.0,57,0.00,CLR,,0.00,WeatherDisplay:10.37,2013-01-15 02:45:00,
2013-01-14 20:50:00,2.5,-9.3,30.26,WSW,258,0.0,0.0,57,0.00,CLR,,0.00,WeatherDisplay:10.37,2013-01-15 02:50:00,
2013-01-14 20:55:00,2.1,-9.6,30.26,WSW,258,0.0,0.0,57,0.00,CLR,,0.00,WeatherDisplay:10.37,2013-01-15 02:55:00,
2013-01-14 21:00:00,1.9,-9.8,30.26,WSW,258,0.0,0.0,57,0.00,CLR,,0.00,WeatherDisplay:10.37,2013-01-15 03:00:00,
2013-01-14 21:05:00,1.8,-10.0,30.26,WSW,258,0.0,0.0,57,0.00,CLR,,0.00,WeatherDisplay:10.37,2013-01-15 03:05:00,
2013-01-14 21:11:00,1.8,-10.0,30.26,WSW,258,0.0,0.0,57,0.00,CLR,,0.00,WeatherDisplay:10.37,2013-01-15 03:11:00,
2013-01-14 21:16:00,1.8,-10.0,30.26,WSW,258,0.0,0.0,57,0.00,CLR,,0.00,WeatherDisplay:10.37,2013-01-15 03:16:00,
2013-01-14 21:21:00,1.8,-10.0,30.26,WSW,258,0.0,0.0,57,0.00,CLR,,0.00,WeatherDisplay:10.37,2013-01-15 03:21:00,
2013-01-14 21:26:00,1.8,-10.0,30.26,WSW,258,0.0,0.0,57,0.00,CLR,,0.00,WeatherDisplay:10.37,2013-01-15 03:26:00,
2013-01-14 21:31:00,1.8,-10.0,30.26,WSW,258,0.0,0.0,57,0.00,CLR,,0.00,WeatherDisplay:10.37,2013-01-15 03:31:00,
2013-01-14 21:36:00,1.6,-10.2,30.23,WSW,258,0.0,0.0,57,0.00,CLR,,0.00,WeatherDisplay:10.37,2013-01-15 03:36:00,
2013-01-14 21:42:00,1.6,-10.2,30.23,WSW,258,0.0,0.0,57,0.00,CLR,,0.00,WeatherDisplay:10.37,2013-01-15 03:42:00,
2013-01-14 21:47:00,1.8,-10.0,30.23,WSW,258,0.0,0.0,57,0.00,CLR,,0.00,WeatherDisplay:10.37,2013-01-15 03:47:00,
2013-01-14 21:52:00,1.8,-10.0,30.26,WSW,258,0.0,0.0,57,0.00,CLR,,0.00,WeatherDisplay:10.37,2013-01-15 03:52:00,
2013-01-14 21:57:00,1.9,-9.8,30.26,WSW,258,0.0,0.0,57,0.00,CLR,,0.00,WeatherDisplay:10.37,2013-01-15 03:57:00,
2013-01-14 22:02:00,1.9,-9.8,30.23,WSW,258,0.0,0.0,57,0.00,CLR,,0.00,WeatherDisplay:10.37,2013-01-15 04:02:00,
2013-01-14 22:08:00,1.6,-10.2,30.23,WSW,258,0.0,0.0,57,0.00,CLR,,0.00,WeatherDisplay:10.37,2013-01-15 04:08:00,
2013-01-14 22:13:00,1.6,-10.2,30.23,WSW,258,0.0,0.0,57,0.00,CLR,,0.00,WeatherDisplay:10.37,2013-01-15 04:13:00,
2013-01-14 22:18:00,1.6,-10.2,30.23,WSW,258,0.0,0.0,57,0.00,CLR,,0.00,WeatherDisplay:10.37,2013-01-15 04:18:00,
2013-01-14 22:23:00,1.6,-10.2,30.23,WSW,258,0.0,0.0,57,0.00,CLR,,0.00,WeatherDisplay:10.37,2013-01-15 04:23:00,
2013-01-14 22:28:00,1.6,-10.2,30.23,WSW,258,0.0,0.0,57,0.00,CLR,,0.00,WeatherDisplay:10.37,2013-01-15 04:28:00,
2013-01-14 22:33:00,1.4,-10.3,30.23,WSW,258,0.0,0.0,57,0.00,CLR,,0.00,WeatherDisplay:10.37,2013-01-15 04:33:00,
2013-01-14 22:38:00,1.4,-10.3,30.23,WSW,258,0.0,0.0,57,0.00,CLR,,0.00,WeatherDisplay:10.37,2013-01-15 04:38:00,
2013-01-14 22:44:00,1.2,-10.5,30.23,WSW,258,0.0,0.0,57,0.00,CLR,,0.00,WeatherDisplay:10.37,2013-01-15 04:44:00,
2013-01-14 22:49:00,1.2,-10.5,30.23,WSW,258,0.0,0.0,57,0.00,CLR,,0.00,WeatherDisplay:10.37,2013-01-15 04:49:00,
2013-01-14 22:54:00,1.4,-10.3,30.23,SE,140,0.0,0.0,57,0.00,CLR,,0.00,WeatherDisplay:10.37,2013-01-15 04:54:00,
2013-01-14 22:59:00,1.8,-10.0,30.23,SE,141,0.0,0.0,57,0.00,CLR,,0.00,WeatherDisplay:10.37,2013-01-15 04:59:00,
2013-01-14 23:00:00,1.8,-10.0,30.23,SE,141,0.0,0.0,57,0.00,CLR,,0.00,WeatherDisplay:10.37,2013-01-15 05:00:00,
2013-01-14 23:01:00,1.8,-10.0,30.23,SE,141,0.0,0.0,57,0.00,CLR,,0.00,WeatherDisplay:10.37,2013-01-15 05:01:00,
2013-01-14 23:02:00,1.8,-10.0,30.23,SE,141,0.0,0.0,57,0.00,CLR,,0.00,WeatherDisplay:10.37,2013-01-15 05:02:00,
2013-01-14 23:03:00,1.8,-10.0,30.23,SE,141,0.0,0.0,57,0.00,CLR,,0.00,WeatherDisplay:10.37,2013-01-15 05:03:00,
2013-01-14 23:08:00,1.8,-10.0,30.23,SE,141,0.0,0.0,57,0.00,CLR,,0.00,WeatherDisplay:10.37,2013-01-15 05:08:00,
2013-01-14 23:13:00,1.8,-10.0,30.23,SE,141,0.0,0.0,57,0.00,CLR,,0.00,WeatherDisplay:10.37,2013-01-15 05:13:00,
2013-01-14 23:18:00,1.8,-10.0,30.23,SE,141,0.0,0.0,57,0.00,CLR,,0.00,WeatherDisplay:10.37,2013-01-15 05:18:00,
2013-01-14 23:23:00,1.8,-10.0,30.23,South,177,0.0,0.0,57,0.00,CLR,,0.00,WeatherDisplay:10.37,2013-01-15 05:23:00,
2013-01-14 23:28:00,1.6,-10.2,30.23,South,182,0.0,0.0,57,0.00,CLR,,0.00,WeatherDisplay:10.37,2013-01-15 05:28:00,
2013-01-14 23:33:00,1.6,-10.2,30.23,South,183,0.0,0.0,57,0.00,CLR,,0.00,WeatherDisplay:10.37,2013-01-15 05:33:00,
2013-01-14 23:39:00,1.4,-10.3,30.23,South,182,0.0,0.0,57,0.00,CLR,,0.00,WeatherDisplay:10.37,2013-01-15 05:39:00,
2013-01-14 23:44:00,1.2,-10.5,30.23,South,182,0.0,0.0,57,0.00,CLR,,0.00,WeatherDisplay:10.37,2013-01-15 05:44:00,
2013-01-14 23:49:00,1.4,-10.3,30.23,South,182,0.0,0.0,57,0.00,CLR,,0.00,WeatherDisplay:10.37,2013-01-15 05:49:00,
2013-01-14 23:54:00,1.6,-10.2,30.23,SE,137,0.0,0.0,57,0.00,CLR,,0.00,WeatherDisplay:10.37,2013-01-15 05:54:00,
2013-01-14 23:59:00,1.9,-9.8,30.23,ESE,109,0.0,0.0,57,0.00,CLR,,0.00,WeatherDisplay:10.37,2013-01-15 05:59:00,